Time;durP1;ratioP1;P1;durP2;ratioP2;P2;SDS_P1;SDS_P2;PMS_P1;PMS_P2;Temp;Humidity;BMP_temperature;BMP_pressure;BME280_temperature;BME280_humidity;BME280_pressure;Samples;Min_cycle;Max_cycle;Signal;HPM_P1;HPM_P2
2021/10/18 00:00:12;;;;;;;39.72;22.20;;;;;;;;;;6246169;23;20070;-59
2021/10/18 00:02:37;;;;;;;37.80;21.63;;;;;;;;;;6248010;22;19996;-59
2021/10/18 00:05:04;;;;;;;39.60;21.95;;;;;;;;;;6246146;23;20329;-59
2021/10/18 00:07:29;;;;;;;42.30;22.77;;;;;;;;;;6247753;22;19999;-59
2021/10/18 00:09:54;;;;;;;36.45;22.25;;;;;;;;;;6247888;23;20000;-59
2021/10/18 00:12:20;;;;;;;38.50;21.02;;;;;;;;;;6247592;22;20321;-60
2021/10/18 00:14:46;;;;;;;37.42;20.63;;;;;;;;;;6247424;22;20007;-59
2021/10/18 00:17:11;;;;;;;34.63;20.73;;;;;;;;;;6247289;23;20075;-59
2021/10/18 00:19:37;;;;;;;36.75;21.15;;;;;;;;;;6247306;23;20038;-59
2021/10/18 00:22:02;;;;;;;39.42;20.95;;;;;;;;;;6247356;22;20328;-60
2021/10/18 00:24:28;;;;;;;35.95;20.60;;;;;;;;;;6247624;23;20015;-59
2021/10/18 00:26:54;;;;;;;37.38;20.67;;;;;;;;;;6245921;23;20002;-60
2021/10/18 00:29:19;;;;;;;37.97;20.83;;;;;;;;;;6247505;22;20011;-60
2021/10/18 00:31:45;;;;;;;38.58;20.90;;;;;;;;;;6247291;22;19992;-60
2021/10/18 00:34:10;;;;;;;33.63;19.65;;;;;;;;;;6247454;22;20421;-60
2021/10/18 00:36:36;;;;;;;40.30;21.92;;;;;;;;;;6246130;23;20081;-60
2021/10/18 00:39:03;;;;;;;40.80;21.27;;;;;;;;;;6247407;22;20086;-60
2021/10/18 00:41:28;;;;;;;39.67;21.13;;;;;;;;;;6246954;22;20000;-60
2021/10/18 00:43:56;;;;;;;35.92;20.45;;;;;;;;;;6247320;22;20017;-60
2021/10/18 00:46:23;;;;;;;34.05;20.30;;;;;;;;;;6246037;23;20019;-60
2021/10/18 00:48:49;;;;;;;40.10;21.23;;;;;;;;;;6247247;22;20004;-60
2021/10/18 00:51:15;;;;;;;40.70;21.67;;;;;;;;;;6247261;22;20324;-60
2021/10/18 00:53:41;;;;;;;35.00;20.10;;;;;;;;;;6247095;23;20008;-60
2021/10/18 00:56:07;;;;;;;35.83;20.00;;;;;;;;;;6246689;22;20004;-61
2021/10/18 00:58:33;;;;;;;35.30;20.25;;;;;;;;;;6247428;22;20043;-60
2021/10/18 01:00:58;;;;;;;36.45;20.38;;;;;;;;;;6247299;22;20032;-60
2021/10/18 01:03:24;;;;;;;34.45;20.05;;;;;;;;;;6247215;23;20063;-60
2021/10/18 01:05:50;;;;;;;36.13;20.02;;;;;;;;;;6245701;23;19988;-59
2021/10/18 01:08:15;;;;;;;37.05;20.25;;;;;;;;;;6247287;22;20000;-60
2021/10/18 01:10:41;;;;;;;34.53;20.20;;;;;;;;;;6246898;22;19991;-60
2021/10/18 01:13:07;;;;;;;37.38;20.52;;;;;;;;;;6247079;23;20031;-60
2021/10/18 01:15:32;;;;;;;39.08;20.95;;;;;;;;;;6247105;22;20019;-59
2021/10/18 01:17:58;;;;;;;33.83;20.10;;;;;;;;;;6246954;22;20011;-60
2021/10/18 01:20:30;;;;;;;34.75;19.83;;;;;;;;;;6247018;22;20007;-60
2021/10/18 01:22:56;;;;;;;35.30;19.27;;;;;;;;;;6246949;22;20008;-60
2021/10/18 01:25:22;;;;;;;37.17;20.13;;;;;;;;;;6247096;22;20012;-59
2021/10/18 01:27:49;;;;;;;35.88;19.25;;;;;;;;;;6247320;22;20008;-59
2021/10/18 01:30:15;;;;;;;35.97;19.65;;;;;;;;;;6246914;23;20397;-60
2021/10/18 01:32:42;;;;;;;33.78;19.35;;;;;;;;;;6246832;23;20000;-60
2021/10/18 01:35:09;;;;;;;33.53;19.45;;;;;;;;;;6247023;22;20043;-60
2021/10/18 01:37:34;;;;;;;31.55;18.83;;;;;;;;;;6246857;22;20016;-60
2021/10/18 01:40:00;;;;;;;35.13;19.42;;;;;;;;;;6245290;23;20000;-60
2021/10/18 01:42:25;;;;;;;28.55;17.40;;;;;;;;;;6246687;23;20008;-60
2021/10/18 01:44:51;;;;;;;32.10;18.15;;;;;;;;;;6246685;23;20084;-59
2021/10/18 01:47:18;;;;;;;35.08;19.40;;;;;;;;;;6247152;22;20008;-59
2021/10/18 01:49:43;;;;;;;31.60;18.17;;;;;;;;;;6246905;23;20054;-59
2021/10/18 01:52:09;;;;;;;30.40;18.08;;;;;;;;;;6246613;22;20428;-59
2021/10/18 01:54:35;;;;;;;30.92;18.08;;;;;;;;;;6246548;22;20321;-60
2021/10/18 01:57:00;;;;;;;32.78;18.50;;;;;;;;;;6245753;23;20022;-59
2021/10/18 01:59:26;;;;;;;27.35;16.98;;;;;;;;;;6246583;22;20008;-60
2021/10/18 02:01:51;;;;;;;28.50;16.98;;;;;;;;;;6246789;22;20015;-59
2021/10/18 02:04:17;;;;;;;27.40;16.73;;;;;;;;;;6246802;22;20309;-59
2021/10/18 02:06:43;;;;;;;29.83;17.65;;;;;;;;;;6246352;23;20000;-59
2021/10/18 02:09:09;;;;;;;32.63;17.83;;;;;;;;;;6246518;23;20000;-59
2021/10/18 02:11:35;;;;;;;40.45;21.55;;;;;;;;;;6246623;22;20004;-59
2021/10/18 02:14:00;;;;;;;34.63;21.10;;;;;;;;;;6246361;22;19999;-59
2021/10/18 02:16:26;;;;;;;33.88;19.63;;;;;;;;;;6246588;22;20009;-59
2021/10/18 02:18:51;;;;;;;30.10;17.73;;;;;;;;;;6246358;22;20122;-59
2021/10/18 02:21:20;;;;;;;26.10;15.75;;;;;;;;;;6246179;22;20016;-60
2021/10/18 02:23:45;;;;;;;27.42;16.80;;;;;;;;;;6246629;22;20046;-59
2021/10/18 02:26:11;;;;;;;26.30;17.15;;;;;;;;;;6246655;23;20087;-59
2021/10/18 02:28:36;;;;;;;28.13;17.10;;;;;;;;;;6246198;22;20387;-59
2021/10/18 02:31:02;;;;;;;29.95;16.35;;;;;;;;;;6246159;23;20000;-60
2021/10/18 02:33:35;;;;;;;27.80;16.67;;;;;;;;;;6246124;22;20543;-60
2021/10/18 02:36:01;;;;;;;26.55;16.98;;;;;;;;;;6246749;22;20000;-64
2021/10/18 02:38:26;;;;;;;28.73;16.63;;;;;;;;;;6246640;23;20043;-65
2021/10/18 02:40:53;;;;;;;28.77;16.77;;;;;;;;;;6246403;23;20004;-66
2021/10/18 02:43:19;;;;;;;28.50;16.63;;;;;;;;;;6246154;22;19996;-66
2021/10/18 02:45:44;;;;;;;28.58;16.67;;;;;;;;;;6246631;22;20425;-66
2021/10/18 02:48:12;;;;;;;27.55;16.77;;;;;;;;;;6246405;22;20003;-64
2021/10/18 02:50:38;;;;;;;32.97;19.60;;;;;;;;;;6246293;23;20004;-64
2021/10/18 02:53:04;;;;;;;33.15;19.50;;;;;;;;;;6245999;22;20002;-64
2021/10/18 02:55:29;;;;;;;36.42;19.42;;;;;;;;;;6246258;22;20012;-64
2021/10/18 02:57:56;;;;;;;34.95;20.05;;;;;;;;;;6244493;23;20012;-64
2021/10/18 03:00:21;;;;;;;32.00;18.83;;;;;;;;;;6244296;23;20008;-64
2021/10/18 03:02:50;;;;;;;31.20;18.13;;;;;;;;;;6246046;22;20008;-64
2021/10/18 03:05:17;;;;;;;33.47;18.23;;;;;;;;;;6246269;23;20004;-62
2021/10/18 03:07:42;;;;;;;29.85;17.67;;;;;;;;;;6246422;22;19992;-65
2021/10/18 03:10:08;;;;;;;35.20;18.38;;;;;;;;;;6246201;22;20351;-65
2021/10/18 03:12:34;;;;;;;32.05;18.65;;;;;;;;;;6246245;22;20079;-65
2021/10/18 03:14:59;;;;;;;29.38;18.08;;;;;;;;;;6245958;22;20015;-64
2021/10/18 03:17:26;;;;;;;35.88;18.92;;;;;;;;;;6244483;23;20428;-64
2021/10/18 03:19:51;;;;;;;31.63;18.13;;;;;;;;;;6244501;23;20340;-64
2021/10/18 03:22:17;;;;;;;33.78;19.40;;;;;;;;;;6246171;23;20078;-64
2021/10/18 03:24:42;;;;;;;34.85;19.30;;;;;;;;;;6244827;23;20087;-64
2021/10/18 03:27:08;;;;;;;29.58;18.33;;;;;;;;;;6246130;23;20074;-64
2021/10/18 03:29:34;;;;;;;33.78;19.23;;;;;;;;;;6245993;22;20004;-64
2021/10/18 03:31:59;;;;;;;28.63;17.85;;;;;;;;;;6245989;22;19996;-64
2021/10/18 03:34:25;;;;;;;31.15;18.98;;;;;;;;;;6247857;22;20019;-64
2021/10/18 03:36:50;;;;;;;35.63;20.55;;;;;;;;;;6247921;23;20000;-64
2021/10/18 03:39:16;;;;;;;35.03;18.75;;;;;;;;;;6246576;23;20008;-64
2021/10/18 03:41:43;;;;;;;33.17;18.88;;;;;;;;;;6248402;22;20016;-64
2021/10/18 03:44:08;;;;;;;30.38;18.60;;;;;;;;;;6247718;23;20011;-66
2021/10/18 03:46:34;;;;;;;36.42;20.73;;;;;;;;;;6246909;23;20004;-65
2021/10/18 03:48:59;;;;;;;38.95;20.90;;;;;;;;;;6248182;23;20000;-65
2021/10/18 03:51:25;;;;;;;35.03;20.83;;;;;;;;;;6248087;22;19992;-65
2021/10/18 03:53:51;;;;;;;36.65;21.52;;;;;;;;;;6247793;23;20062;-65
2021/10/18 03:56:16;;;;;;;37.80;21.10;;;;;;;;;;6247418;22;20009;-65
2021/10/18 03:58:42;;;;;;;37.50;21.80;;;;;;;;;;6248076;22;20082;-64
2021/10/18 04:01:09;;;;;;;38.83;21.83;;;;;;;;;;6247962;23;20011;-64
2021/10/18 04:03:36;;;;;;;34.72;21.55;;;;;;;;;;6247953;22;20055;-64
2021/10/18 04:06:01;;;;;;;35.50;20.60;;;;;;;;;;6220927;23;19996;-64
2021/10/18 04:08:30;;;;;;;36.25;20.83;;;;;;;;;;6247700;23;20336;-64
2021/10/18 04:10:56;;;;;;;36.22;20.17;;;;;;;;;;6246271;23;20000;-65
2021/10/18 04:13:21;;;;;;;35.17;19.95;;;;;;;;;;6247597;23;20027;-65
2021/10/18 04:15:48;;;;;;;35.35;20.42;;;;;;;;;;6247844;22;20019;-65
2021/10/18 04:18:14;;;;;;;38.45;21.00;;;;;;;;;;6248115;22;20004;-64
2021/10/18 04:20:39;;;;;;;40.92;22.83;;;;;;;;;;6247595;22;19992;-60
2021/10/18 04:23:05;;;;;;;48.80;25.85;;;;;;;;;;6247663;23;20004;-60
2021/10/18 04:25:31;;;;;;;43.50;24.75;;;;;;;;;;6247815;22;20054;-60
2021/10/18 04:27:56;;;;;;;42.05;23.15;;;;;;;;;;6246112;23;20070;-60
2021/10/18 04:30:22;;;;;;;39.15;21.70;;;;;;;;;;6247645;22;20443;-60
2021/10/18 04:32:48;;;;;;;36.05;21.92;;;;;;;;;;6247464;23;20011;-59
2021/10/18 04:35:13;;;;;;;37.63;20.55;;;;;;;;;;6246987;22;20000;-59
2021/10/18 04:37:39;;;;;;;39.50;21.80;;;;;;;;;;6247749;22;20008;-59
2021/10/18 04:40:05;;;;;;;42.42;22.70;;;;;;;;;;6246752;22;19996;-59
2021/10/18 04:42:30;;;;;;;37.08;21.40;;;;;;;;;;6247009;22;20054;-60
2021/10/18 04:44:56;;;;;;;37.90;21.45;;;;;;;;;;6246197;22;20000;-59
2021/10/18 04:47:22;;;;;;;36.83;21.88;;;;;;;;;;6247148;23;20012;-60
2021/10/18 04:49:47;;;;;;;39.22;21.08;;;;;;;;;;6246930;23;20047;-60
2021/10/18 04:52:13;;;;;;;39.25;21.85;;;;;;;;;;6246805;22;20036;-59
2021/10/18 04:54:38;;;;;;;36.90;21.05;;;;;;;;;;6247047;22;20083;-59
2021/10/18 04:57:04;;;;;;;40.50;22.08;;;;;;;;;;6246255;23;20019;-60
2021/10/18 04:59:29;;;;;;;40.75;21.98;;;;;;;;;;6246714;22;20091;-60
2021/10/18 05:01:55;;;;;;;36.45;20.65;;;;;;;;;;6246782;22;20012;-60
2021/10/18 05:04:20;;;;;;;37.00;21.48;;;;;;;;;;6246770;23;20002;-60
2021/10/18 05:06:46;;;;;;;33.67;20.95;;;;;;;;;;6246907;22;20436;-59
2021/10/18 05:09:11;;;;;;;38.17;21.42;;;;;;;;;;6246646;23;20023;-59
2021/10/18 05:11:37;;;;;;;36.72;21.67;;;;;;;;;;6246697;22;20092;-59
2021/10/18 05:14:02;;;;;;;37.75;21.25;;;;;;;;;;6246514;22;19996;-59
2021/10/18 05:16:28;;;;;;;36.60;20.98;;;;;;;;;;6246807;22;20036;-60
2021/10/18 05:18:53;;;;;;;33.13;21.35;;;;;;;;;;6247134;22;20027;-59
2021/10/18 05:21:19;;;;;;;36.30;20.77;;;;;;;;;;6247003;23;20012;-59
2021/10/18 05:23:44;;;;;;;36.65;20.98;;;;;;;;;;6245690;23;20003;-60
2021/10/18 05:26:10;;;;;;;38.25;20.85;;;;;;;;;;6247478;23;20004;-59
2021/10/18 05:28:35;;;;;;;41.22;21.92;;;;;;;;;;6247125;22;20019;-59
2021/10/18 05:31:01;;;;;;;37.97;21.00;;;;;;;;;;6247086;22;20003;-60
2021/10/18 05:33:27;;;;;;;38.00;20.98;;;;;;;;;;6247077;22;20016;-59
2021/10/18 05:35:52;;;;;;;37.42;21.27;;;;;;;;;;6246824;23;20008;-59
2021/10/18 05:38:18;;;;;;;39.25;21.30;;;;;;;;;;6247109;23;19996;-59
2021/10/18 05:40:44;;;;;;;40.70;21.45;;;;;;;;;;6246751;22;20001;-59
2021/10/18 05:43:09;;;;;;;36.78;20.80;;;;;;;;;;6246893;23;20007;-59
2021/10/18 05:45:35;;;;;;;36.08;20.27;;;;;;;;;;6246464;22;20015;-59
2021/10/18 05:48:01;;;;;;;34.28;19.83;;;;;;;;;;6246509;23;19996;-60
2021/10/18 05:50:28;;;;;;;36.33;19.75;;;;;;;;;;6246736;23;20011;-59
2021/10/18 05:52:54;;;;;;;33.65;19.90;;;;;;;;;;6246563;22;19997;-59
2021/10/18 05:55:21;;;;;;;36.83;18.95;;;;;;;;;;6245986;23;20027;-59
2021/10/18 05:57:54;;;;;;;34.00;19.55;;;;;;;;;;6246944;22;20416;-59
2021/10/18 06:00:21;;;;;;;35.10;20.27;;;;;;;;;;6244933;23;20004;-59
2021/10/18 06:02:46;;;;;;;35.88;19.95;;;;;;;;;;6246286;22;20003;-59
2021/10/18 06:05:13;;;;;;;40.17;20.70;;;;;;;;;;6245526;23;20093;-59
2021/10/18 06:07:39;;;;;;;34.78;19.40;;;;;;;;;;6245993;23;20058;-59
2021/10/18 06:10:05;;;;;;;34.08;19.20;;;;;;;;;;6246052;23;20329;-59
2021/10/18 06:12:31;;;;;;;37.15;20.77;;;;;;;;;;6246533;22;20074;-59
2021/10/18 06:14:56;;;;;;;30.70;19.20;;;;;;;;;;6246111;23;20043;-59
2021/10/18 06:17:22;;;;;;;40.67;20.23;;;;;;;;;;6246713;23;20058;-59
2021/10/18 06:19:47;;;;;;;35.78;19.98;;;;;;;;;;6244916;23;20046;-59
2021/10/18 06:22:13;;;;;;;33.50;19.45;;;;;;;;;;6246534;23;20004;-59
2021/10/18 06:24:38;;;;;;;32.35;19.70;;;;;;;;;;6246175;23;20008;-60
2021/10/18 06:27:04;;;;;;;32.17;20.15;;;;;;;;;;6246403;23;20003;-59
2021/10/18 06:29:31;;;;;;;33.45;20.00;;;;;;;;;;6246272;22;20007;-59
2021/10/18 06:31:56;;;;;;;32.58;19.13;;;;;;;;;;6246326;22;19992;-59
2021/10/18 06:34:22;;;;;;;34.90;19.55;;;;;;;;;;6246078;23;20058;-59
2021/10/18 06:36:47;;;;;;;33.95;18.73;;;;;;;;;;6245832;23;19996;-59
2021/10/18 06:39:12;;;;;;;33.55;19.75;;;;;;;;;;6246171;22;20012;-59
2021/10/18 06:41:38;;;;;;;29.75;18.90;;;;;;;;;;6246034;23;20054;-59
2021/10/18 06:44:03;;;;;;;33.03;19.00;;;;;;;;;;6246020;22;20085;-59
2021/10/18 06:46:29;;;;;;;32.33;17.98;;;;;;;;;;6245961;22;20302;-59
2021/10/18 06:48:55;;;;;;;30.92;19.05;;;;;;;;;;6245625;22;20004;-59
2021/10/18 06:51:20;;;;;;;33.55;18.90;;;;;;;;;;6246356;22;20439;-55
2021/10/18 06:53:50;;;;;;;32.58;18.88;;;;;;;;;;6246011;23;20050;-60
2021/10/18 06:56:15;;;;;;;31.70;19.70;;;;;;;;;;6244513;22;20098;-60
2021/10/18 06:58:41;;;;;;;33.85;19.60;;;;;;;;;;6246432;22;20444;-60
2021/10/18 07:01:06;;;;;;;37.35;20.75;;;;;;;;;;6246464;22;20443;-60
2021/10/18 07:03:32;;;;;;;48.00;21.58;;;;;;;;;;6246191;22;20078;-60
2021/10/18 07:05:59;;;;;;;42.25;21.80;;;;;;;;;;6246188;22;20004;-60
2021/10/18 07:08:24;;;;;;;38.47;22.33;;;;;;;;;;6245931;22;20024;-60
2021/10/18 07:10:50;;;;;;;39.20;22.58;;;;;;;;;;6246057;23;20051;-60
2021/10/18 07:13:15;;;;;;;37.83;21.88;;;;;;;;;;6246075;23;19992;-60
2021/10/18 07:15:41;;;;;;;34.25;22.20;;;;;;;;;;6246039;22;20008;-60
2021/10/18 07:18:07;;;;;;;38.20;22.90;;;;;;;;;;6246220;22;19997;-60
2021/10/18 07:20:32;;;;;;;33.83;20.85;;;;;;;;;;6246229;23;20008;-60
2021/10/18 07:23:00;;;;;;;33.53;20.42;;;;;;;;;;6246222;22;20004;-60
2021/10/18 07:25:25;;;;;;;32.67;20.33;;;;;;;;;;6246166;22;20087;-60
2021/10/18 07:27:51;;;;;;;31.52;20.02;;;;;;;;;;6246082;22;20424;-60
2021/10/18 07:30:17;;;;;;;30.58;19.30;;;;;;;;;;6245807;22;20004;-60
2021/10/18 07:32:45;;;;;;;31.15;19.45;;;;;;;;;;6245890;22;20000;-60
2021/10/18 07:35:11;;;;;;;32.05;19.60;;;;;;;;;;6245961;22;20004;-60
2021/10/18 07:37:36;;;;;;;31.40;19.73;;;;;;;;;;6246018;22;20079;-60
2021/10/18 07:40:03;;;;;;;29.52;18.83;;;;;;;;;;6246067;22;20510;-60
2021/10/18 07:42:28;;;;;;;30.15;18.85;;;;;;;;;;6246086;22;20321;-60
2021/10/18 07:44:54;;;;;;;30.02;19.02;;;;;;;;;;6245557;23;20011;-59
2021/10/18 07:47:20;;;;;;;28.67;18.83;;;;;;;;;;6246145;22;19992;-60
2021/10/18 07:49:46;;;;;;;31.40;19.20;;;;;;;;;;6245877;22;20008;-65
2021/10/18 07:52:12;;;;;;;27.90;17.55;;;;;;;;;;6246353;22;19993;-66
2021/10/18 07:54:38;;;;;;;29.77;18.30;;;;;;;;;;6246098;23;20008;-66
2021/10/18 07:57:04;;;;;;;24.40;16.45;;;;;;;;;;6244861;22;20061;-59
2021/10/18 07:59:29;;;;;;;29.48;17.40;;;;;;;;;;6245435;22;20031;-59
2021/10/18 08:01:56;;;;;;;28.90;18.05;;;;;;;;;;6245707;22;20008;-59
2021/10/18 08:04:22;;;;;;;29.50;18.30;;;;;;;;;;6245366;23;20011;-60
2021/10/18 08:06:47;;;;;;;23.70;14.95;;;;;;;;;;6245991;22;19997;-65
2021/10/18 08:09:13;;;;;;;23.20;15.10;;;;;;;;;;6245998;22;20011;-65
2021/10/18 08:11:39;;;;;;;19.13;13.55;;;;;;;;;;6245430;22;19996;-65
2021/10/18 08:14:04;;;;;;;20.25;13.23;;;;;;;;;;6245329;22;20004;-65
2021/10/18 08:16:30;;;;;;;19.30;13.38;;;;;;;;;;6245405;23;20079;-65
2021/10/18 08:18:55;;;;;;;18.92;13.27;;;;;;;;;;6245433;23;20506;-65
2021/10/18 08:21:22;;;;;;;18.95;12.48;;;;;;;;;;6246678;22;20045;-65
2021/10/18 08:23:48;;;;;;;19.10;12.10;;;;;;;;;;6247240;23;20015;-64
2021/10/18 08:26:13;;;;;;;18.25;11.05;;;;;;;;;;6246457;22;19997;-65
2021/10/18 08:28:39;;;;;;;16.50;11.43;;;;;;;;;;6247174;22;20004;-65
2021/10/18 08:31:04;;;;;;;14.50;10.93;;;;;;;;;;6246903;23;20420;-65
2021/10/18 08:33:30;;;;;;;15.20;10.18;;;;;;;;;;6246864;22;20080;-66
2021/10/18 08:35:55;;;;;;;16.60;10.13;;;;;;;;;;6246841;22;20071;-65
2021/10/18 08:41:07;;;;;;;15.75;10.15;;;;;;;;;;6246860;23;20014;-65
2021/10/18 08:46:04;;;;;;;13.02;9.48;;;;;;;;;;6238174;22;20015;-65
2021/10/18 08:48:30;;;;;;;15.52;9.85;;;;;;;;;;6242759;23;19992;-65
2021/10/18 08:50:55;;;;;;;12.55;9.27;;;;;;;;;;6242042;23;20011;-65
2021/10/18 08:53:21;;;;;;;11.57;9.20;;;;;;;;;;6240387;23;20006;-65
2021/10/18 08:55:46;;;;;;;12.70;8.90;;;;;;;;;;6241656;23;20106;-65
2021/10/18 08:58:12;;;;;;;12.07;8.93;;;;;;;;;;6240041;23;20027;-65
2021/10/18 09:00:37;;;;;;;10.82;7.55;;;;;;;;;;6241694;23;20110;-65
2021/10/18 09:03:33;;;;;;;10.23;7.50;;;;;;;;;;6241774;22;20078;-65
2021/10/18 09:06:09;;;;;;;9.32;7.45;;;;;;;;;;6222050;22;20086;-65
2021/10/18 09:08:36;;;;;;;11.68;8.55;;;;;;;;;;6242054;23;20008;-65
2021/10/18 09:11:03;;;;;;;10.65;7.88;;;;;;;;;;6242303;22;20007;-65
2021/10/18 09:13:29;;;;;;;9.23;7.35;;;;;;;;;;6241916;23;20008;-65
2021/10/18 09:15:54;;;;;;;9.40;7.75;;;;;;;;;;6241287;22;20000;-65
2021/10/18 09:18:20;;;;;;;9.52;7.72;;;;;;;;;;6239533;23;20008;-65
2021/10/18 09:20:46;;;;;;;10.57;8.13;;;;;;;;;;6241681;23;20000;-65
2021/10/18 09:23:17;;;;;;;10.68;7.65;;;;;;;;;;6242114;23;20004;-66
2021/10/18 09:25:42;;;;;;;10.15;7.88;;;;;;;;;;6241961;23;20464;-66
2021/10/18 09:28:09;;;;;;;10.20;8.00;;;;;;;;;;6241988;22;19996;-66
2021/10/18 09:30:35;;;;;;;10.30;7.90;;;;;;;;;;6241857;23;20008;-66
2021/10/18 09:33:02;;;;;;;10.77;7.95;;;;;;;;;;6240067;23;19996;-66
2021/10/18 09:35:27;;;;;;;10.95;7.70;;;;;;;;;;6241269;23;20070;-66
2021/10/18 09:37:53;;;;;;;9.35;7.88;;;;;;;;;;6242031;22;20002;-66
2021/10/18 09:40:32;;;;;;;9.40;7.93;;;;;;;;;;6241479;23;20079;-66
2021/10/18 09:43:47;;;;;;;10.10;8.13;;;;;;;;;;6241130;22;20012;-66
2021/10/18 09:46:50;;;;;;;8.77;7.45;;;;;;;;;;6229466;23;20015;-66
2021/10/18 10:53:53;;;;;;;11.77;8.60;;;;;;;;;;6240609;22;20440;-65
2021/10/18 10:56:29;;;;;;;10.57;8.90;;;;;;;;;;6236287;22;20012;-65
2021/10/18 10:59:07;;;;;;;12.05;8.73;;;;;;;;;;6183617;23;20336;-59
2021/10/18 11:01:38;;;;;;;10.70;8.45;;;;;;;;;;6183335;23;20084;-59
2021/10/18 11:04:23;;;;;;;10.15;8.95;;;;;;;;;;6210176;23;20040;-59
2021/10/18 11:06:48;;;;;;;11.10;9.23;;;;;;;;;;6209881;23;20456;-60
2021/10/18 11:09:32;;;;;;;10.40;9.07;;;;;;;;;;6210072;23;20001;-59
2021/10/18 11:11:59;;;;;;;11.50;8.80;;;;;;;;;;6210674;23;20488;-59
2021/10/18 11:14:24;;;;;;;10.40;8.98;;;;;;;;;;6210140;23;20341;-59
2021/10/18 11:16:50;;;;;;;9.70;8.45;;;;;;;;;;6158370;23;20012;-59
2021/10/18 11:19:20;;;;;;;9.90;8.88;;;;;;;;;;6210559;23;20039;-59
2021/10/18 11:21:53;;;;;;;11.30;9.43;;;;;;;;;;6183646;23;20012;-60
2021/10/18 11:24:19;;;;;;;11.23;9.32;;;;;;;;;;6210235;23;20063;-60
2021/10/18 11:26:44;;;;;;;9.95;8.55;;;;;;;;;;6183326;23;20433;-59
2021/10/18 11:29:11;;;;;;;9.82;8.82;;;;;;;;;;6183425;23;20016;-59
2021/10/18 11:31:38;;;;;;;10.10;8.75;;;;;;;;;;6210114;23;20007;-59
2021/10/18 11:34:07;;;;;;;9.02;8.13;;;;;;;;;;6210311;23;20086;-59
2021/10/18 11:36:33;;;;;;;10.70;8.18;;;;;;;;;;6213587;23;19997;-60
2021/10/18 11:39:14;;;;;;;9.63;8.18;;;;;;;;;;6215411;23;20040;-59
2021/10/18 11:41:58;;;;;;;9.98;8.25;;;;;;;;;;6215408;23;20011;-59
2021/10/18 11:44:42;;;;;;;9.20;8.18;;;;;;;;;;6214975;23;20044;-60
2021/10/18 11:47:20;;;;;;;8.45;7.50;;;;;;;;;;6214825;23;20012;-59
2021/10/18 11:50:04;;;;;;;8.95;8.02;;;;;;;;;;6215210;23;20422;-59
2021/10/18 11:52:30;;;;;;;9.30;8.35;;;;;;;;;;6214904;23;20306;-59
2021/10/18 11:54:56;;;;;;;9.98;7.90;;;;;;;;;;6216703;23;20058;-59
2021/10/18 11:57:22;;;;;;;8.27;7.47;;;;;;;;;;6228335;22;20020;-60
2021/10/18 11:59:48;;;;;;;9.65;7.95;;;;;;;;;;6247096;23;20008;-59
2021/10/18 12:02:23;;;;;;;8.57;7.72;;;;;;;;;;6247103;23;20058;-59
2021/10/18 12:04:58;;;;;;;11.00;8.32;;;;;;;;;;6248021;22;20016;-60
2021/10/18 12:07:44;;;;;;;9.68;8.52;;;;;;;;;;6245797;23;20130;-59
2021/10/18 12:10:17;;;;;;;9.95;8.95;;;;;;;;;;6231069;23;20004;-59
2021/10/18 12:13:02;;;;;;;8.80;7.22;;;;;;;;;;6247515;23;20130;-59
2021/10/18 12:15:27;;;;;;;7.32;6.63;;;;;;;;;;6246267;23;20106;-59
2021/10/18 12:17:53;;;;;;;8.82;7.82;;;;;;;;;;6245939;23;20424;-59
2021/10/18 12:20:18;;;;;;;7.72;6.97;;;;;;;;;;6247533;23;20011;-59
2021/10/18 12:23:00;;;;;;;8.48;7.05;;;;;;;;;;6247615;23;20023;-59
2021/10/18 12:25:26;;;;;;;7.75;6.95;;;;;;;;;;6241738;23;20797;-59
2021/10/18 12:27:53;;;;;;;7.97;7.18;;;;;;;;;;6242688;22;20002;-59
2021/10/18 12:30:38;;;;;;;8.65;7.35;;;;;;;;;;6242436;23;20004;-60
2021/10/18 12:33:08;;;;;;;9.30;8.27;;;;;;;;;;6242461;23;20102;-59
2021/10/18 12:35:33;;;;;;;8.50;7.80;;;;;;;;;;6242608;23;20515;-59
2021/10/18 12:38:06;;;;;;;8.60;7.80;;;;;;;;;;6242273;22;20007;-59
2021/10/18 12:40:32;;;;;;;10.30;8.27;;;;;;;;;;6242383;22;20012;-59
2021/10/18 12:42:57;;;;;;;9.50;8.52;;;;;;;;;;6242354;23;20700;-59
2021/10/18 12:45:23;;;;;;;9.60;8.57;;;;;;;;;;6241349;22;20019;-59
2021/10/18 12:47:54;;;;;;;9.48;8.55;;;;;;;;;;6241744;22;20000;-59
2021/10/18 12:50:21;;;;;;;10.05;9.05;;;;;;;;;;6242387;22;20062;-59
2021/10/18 12:52:53;;;;;;;12.38;9.63;;;;;;;;;;6242607;22;20000;-59
2021/10/18 12:55:23;;;;;;;10.95;9.80;;;;;;;;;;6240421;23;20018;-60
2021/10/18 12:57:54;;;;;;;10.50;9.43;;;;;;;;;;6241363;23;20023;-59
2021/10/18 13:00:27;;;;;;;10.73;9.40;;;;;;;;;;6242149;22;20111;-60
2021/10/18 13:03:13;;;;;;;11.63;9.57;;;;;;;;;;6242509;22;20095;-60
2021/10/18 13:05:38;;;;;;;11.68;8.98;;;;;;;;;;6240865;23;20340;-60
2021/10/18 13:08:04;;;;;;;13.43;10.57;;;;;;;;;;6242310;22;19996;-60
2021/10/18 13:10:32;;;;;;;13.02;10.48;;;;;;;;;;6242001;23;20510;-60
2021/10/18 13:12:59;;;;;;;11.70;9.18;;;;;;;;;;6242078;22;20004;-60
2021/10/18 13:15:24;;;;;;;15.65;11.38;;;;;;;;;;6241842;23;20019;-60
2021/10/18 13:17:50;;;;;;;13.20;10.88;;;;;;;;;;6242179;23;20019;-60
2021/10/18 13:20:17;;;;;;;14.18;11.27;;;;;;;;;;6242035;23;20058;-60
2021/10/18 13:22:43;;;;;;;13.35;10.15;;;;;;;;;;6240380;23;20008;-60
2021/10/18 13:25:09;;;;;;;14.90;10.93;;;;;;;;;;6241652;23;20040;-60
2021/10/18 13:27:36;;;;;;;16.05;12.15;;;;;;;;;;6241990;22;20073;-60
2021/10/18 13:30:05;;;;;;;16.17;11.10;;;;;;;;;;6242078;22;20019;-60
2021/10/18 13:32:30;;;;;;;16.27;12.38;;;;;;;;;;6241661;22;19999;-58
2021/10/18 13:34:57;;;;;;;15.30;12.23;;;;;;;;;;6241781;22;20733;-61
2021/10/18 13:37:25;;;;;;;13.40;11.40;;;;;;;;;;6242159;22;20004;-60
2021/10/18 13:39:51;;;;;;;15.07;11.75;;;;;;;;;;6241796;23;20008;-60
2021/10/18 13:42:17;;;;;;;16.63;12.65;;;;;;;;;;6242050;23;20008;-61
2021/10/18 13:44:43;;;;;;;15.05;11.98;;;;;;;;;;6239834;23;20012;-60
2021/10/18 13:47:08;;;;;;;15.95;12.95;;;;;;;;;;6241971;22;20477;-60
2021/10/18 13:49:34;;;;;;;15.95;12.18;;;;;;;;;;6241645;22;20058;-60
2021/10/18 13:52:00;;;;;;;15.80;11.75;;;;;;;;;;6242007;23;20075;-60
2021/10/18 13:54:25;;;;;;;16.67;12.38;;;;;;;;;;6241775;23;20019;-61
2021/10/18 13:56:51;;;;;;;15.35;13.05;;;;;;;;;;6241487;22;20481;-60
2021/10/18 13:59:18;;;;;;;15.60;12.40;;;;;;;;;;6239674;23;20016;-60
2021/10/18 14:01:44;;;;;;;14.43;12.02;;;;;;;;;;6241914;22;20030;-60
2021/10/18 14:04:10;;;;;;;16.08;11.93;;;;;;;;;;6241784;23;20019;-60
2021/10/18 14:06:35;;;;;;;13.60;10.63;;;;;;;;;;6241667;23;20000;-60
2021/10/18 14:09:01;;;;;;;14.40;11.85;;;;;;;;;;6241643;23;20058;-60
2021/10/18 14:11:26;;;;;;;14.25;11.75;;;;;;;;;;6241709;23;19996;-60
2021/10/18 14:13:52;;;;;;;14.70;11.52;;;;;;;;;;6241571;23;20380;-60
2021/10/18 14:16:20;;;;;;;15.07;12.13;;;;;;;;;;6241756;22;20008;-60
2021/10/18 14:18:46;;;;;;;16.85;10.32;;;;;;;;;;6239794;23;20023;-60
2021/10/18 14:21:12;;;;;;;14.35;11.23;;;;;;;;;;6241699;22;20032;-60
2021/10/18 14:23:37;;;;;;;15.18;11.55;;;;;;;;;;6241650;22;20016;-60
2021/10/18 14:26:03;;;;;;;15.68;11.07;;;;;;;;;;6241463;23;20000;-60
2021/10/18 14:28:29;;;;;;;14.32;11.02;;;;;;;;;;6241649;23;20444;-60
2021/10/18 14:30:54;;;;;;;14.95;11.45;;;;;;;;;;6241434;22;20004;-60
2021/10/18 14:33:21;;;;;;;15.82;11.30;;;;;;;;;;6241501;23;20008;-60
2021/10/18 14:35:46;;;;;;;13.50;10.63;;;;;;;;;;6239602;23;20332;-60
2021/10/18 14:38:12;;;;;;;13.25;10.95;;;;;;;;;;6240076;23;20095;-60
2021/10/18 14:40:38;;;;;;;13.93;11.50;;;;;;;;;;6241464;23;20417;-60
2021/10/18 14:43:03;;;;;;;13.93;11.23;;;;;;;;;;6241652;23;20012;-60
2021/10/18 14:45:29;;;;;;;14.30;11.35;;;;;;;;;;6240938;23;20007;-61
2021/10/18 14:47:54;;;;;;;15.85;12.57;;;;;;;;;;6241675;22;20008;-60
2021/10/18 14:53:57;;;;;;;18.02;12.95;;;;;;;;;;6246652;23;20022;-60
2021/10/18 15:03:54;;;;;;;15.93;11.40;;;;;;;;;;6246436;23;20113;-61
2021/10/18 15:06:19;;;;;;;15.07;11.57;;;;;;;;;;6245018;22;20008;-61
2021/10/18 15:08:45;;;;;;;16.30;12.02;;;;;;;;;;6241765;22;20550;-60
2021/10/18 15:11:10;;;;;;;15.02;12.07;;;;;;;;;;6241740;23;20008;-60
2021/10/18 15:13:37;;;;;;;14.85;11.70;;;;;;;;;;6241561;23;19996;-65
2021/10/18 15:16:02;;;;;;;17.52;12.98;;;;;;;;;;6242077;23;20014;-65
2021/10/18 15:18:28;;;;;;;17.83;12.48;;;;;;;;;;6242850;22;20024;-65
2021/10/18 15:20:54;;;;;;;16.02;12.20;;;;;;;;;;6242676;22;20031;-65
2021/10/18 15:23:20;;;;;;;19.15;12.15;;;;;;;;;;6242662;22;20006;-65
2021/10/18 15:25:45;;;;;;;17.63;12.32;;;;;;;;;;6240981;23;20035;-66
2021/10/18 15:28:11;;;;;;;17.38;13.07;;;;;;;;;;6242890;22;20004;-66
2021/10/18 15:30:37;;;;;;;19.55;13.10;;;;;;;;;;6244724;23;20008;-66
2021/10/18 15:33:03;;;;;;;17.73;12.18;;;;;;;;;;6244599;22;20697;-66
2021/10/18 15:35:28;;;;;;;18.92;13.38;;;;;;;;;;6243868;23;20019;-61
2021/10/18 15:37:54;;;;;;;15.07;12.07;;;;;;;;;;6243983;22;20004;-60
2021/10/18 15:40:20;;;;;;;15.93;11.38;;;;;;;;;;6243460;23;20012;-60